Terminal Aerodrome Forecast
Issued by NWS

Home | Current Version | Previous Version | Text Only | Print | Product List | Glossary On
Versions: 1 2 3 4 5 6 7 8 9 10 11 12 13 14 15 16
095
FTUS41 KCAR 162323
TAFHUL
TAF
KHUL 162323Z 1700/1724 00000KT P6SM SCT200
     FM170700 18004KT P6SM OVC060
     FM171200 15003KT 2SM -SN OVC020
     FM171400 12003KT 3/4SM -SN BR OVC007=

USA.gov is the U.S. government's official web portal to all federal, state and local government web resources and services.